sensor_id;sensor_type;location;lat;lon;timestamp;temperature;humidity
52965;DHT22;42923;53.220;6.528;2024-01-06T00:01:16;1.50;99.90
52965;DHT22;42923;53.220;6.528;2024-01-06T00:03:42;1.60;99.90
52965;DHT22;42923;53.220;6.528;2024-01-06T00:06:10;1.60;99.90
52965;DHT22;42923;53.220;6.528;2024-01-06T00:08:36;1.50;99.90
52965;DHT22;42923;53.220;6.528;2024-01-06T00:11:02;1.40;99.90
52965;DHT22;42923;53.220;6.528;2024-01-06T00:13:28;1.60;99.90
52965;DHT22;42923;53.220;6.528;2024-01-06T00:15:54;1.50;99.90
52965;DHT22;42923;53.220;6.528;2024-01-06T00:18:19;1.50;99.90
52965;DHT22;42923;53.220;6.528;2024-01-06T00:20:45;3.00;99.90
52965;DHT22;42923;53.220;6.528;2024-01-06T00:23:11;1.50;99.90
52965;DHT22;42923;53.220;6.528;2024-01-06T00:25:37;1.50;99.90
52965;DHT22;42923;53.220;6.528;2024-01-06T00:28:02;1.50;99.90
52965;DHT22;42923;53.220;6.528;2024-01-06T00:30:28;1.50;99.90
52965;DHT22;42923;53.220;6.528;2024-01-06T00:32:54;1.50;99.90
52965;DHT22;42923;53.220;6.528;2024-01-06T00:35:20;1.50;99.90
52965;DHT22;42923;53.220;6.528;2024-01-06T00:37:46;1.50;99.90
52965;DHT22;42923;53.220;6.528;2024-01-06T00:40:12;1.50;99.90
52965;DHT22;42923;53.220;6.528;2024-01-06T00:42:38;1.50;99.90
52965;DHT22;42923;53.220;6.528;2024-01-06T00:45:04;1.50;99.90
52965;DHT22;42923;53.220;6.528;2024-01-06T00:47:31;1.50;99.90
52965;DHT22;42923;53.220;6.528;2024-01-06T00:49:56;1.50;99.90
52965;DHT22;42923;53.220;6.528;2024-01-06T00:52:22;1.50;99.90
52965;DHT22;42923;53.220;6.528;2024-01-06T00:54:48;1.40;99.90
52965;DHT22;42923;53.220;6.528;2024-01-06T00:57:13;1.50;99.90
52965;DHT22;42923;53.220;6.528;2024-01-06T00:59:39;1.40;99.90
52965;DHT22;42923;53.220;6.528;2024-01-06T01:02:05;1.40;99.90
52965;DHT22;42923;53.220;6.528;2024-01-06T01:04:30;1.40;99.90
52965;DHT22;42923;53.220;6.528;2024-01-06T01:06:56;1.30;99.90
52965;DHT22;42923;53.220;6.528;2024-01-06T01:09:22;1.50;99.90
52965;DHT22;42923;53.220;6.528;2024-01-06T01:11:47;1.40;99.90
52965;DHT22;42923;53.220;6.528;2024-01-06T01:14:13;1.40;99.90
52965;DHT22;42923;53.220;6.528;2024-01-06T01:16:39;1.40;99.90
52965;DHT22;42923;53.220;6.528;2024-01-06T01:19:05;1.40;99.90
52965;DHT22;42923;53.220;6.528;2024-01-06T01:21:30;1.40;99.90
52965;DHT22;42923;53.220;6.528;2024-01-06T01:23:56;2.50;99.90
52965;DHT22;42923;53.220;6.528;2024-01-06T01:26:22;1.30;99.90
52965;DHT22;42923;53.220;6.528;2024-01-06T01:28:47;1.40;99.90
52965;DHT22;42923;53.220;6.528;2024-01-06T01:31:13;1.30;99.90
52965;DHT22;42923;53.220;6.528;2024-01-06T01:33:39;2.40;99.90
52965;DHT22;42923;53.220;6.528;2024-01-06T01:36:05;1.30;99.90
52965;DHT22;42923;53.220;6.528;2024-01-06T01:38:30;1.40;99.90
52965;DHT22;42923;53.220;6.528;2024-01-06T01:40:56;1.30;99.90
52965;DHT22;42923;53.220;6.528;2024-01-06T01:43:24;1.40;99.90
52965;DHT22;42923;53.220;6.528;2024-01-06T01:45:53;1.30;99.90
52965;DHT22;42923;53.220;6.528;2024-01-06T01:48:20;2.90;99.90
52965;DHT22;42923;53.220;6.528;2024-01-06T01:50:46;1.30;99.90
52965;DHT22;42923;53.220;6.528;2024-01-06T01:53:13;1.30;99.90
52965;DHT22;42923;53.220;6.528;2024-01-06T01:55:42;1.30;99.90
52965;DHT22;42923;53.220;6.528;2024-01-06T01:58:10;1.20;99.90
52965;DHT22;42923;53.220;6.528;2024-01-06T02:00:37;1.20;99.90
52965;DHT22;42923;53.220;6.528;2024-01-06T02:03:04;1.30;99.90
52965;DHT22;42923;53.220;6.528;2024-01-06T02:05:30;1.20;99.90
52965;DHT22;42923;53.220;6.528;2024-01-06T02:07:56;1.20;99.90
52965;DHT22;42923;53.220;6.528;2024-01-06T02:10:22;1.10;99.90
52965;DHT22;42923;53.220;6.528;2024-01-06T02:12:48;1.10;99.90
52965;DHT22;42923;53.220;6.528;2024-01-06T02:15:14;1.10;99.90
52965;DHT22;42923;53.220;6.528;2024-01-06T02:17:40;1.40;99.90
52965;DHT22;42923;53.220;6.528;2024-01-06T02:20:10;1.10;99.90
52965;DHT22;42923;53.220;6.528;2024-01-06T02:22:37;1.10;99.90
52965;DHT22;42923;53.220;6.528;2024-01-06T02:25:06;1.10;99.90
52965;DHT22;42923;53.220;6.528;2024-01-06T02:27:38;1.00;99.90
52965;DHT22;42923;53.220;6.528;2024-01-06T02:30:06;1.10;99.90
52965;DHT22;42923;53.220;6.528;2024-01-06T02:32:31;1.10;99.90
52965;DHT22;42923;53.220;6.528;2024-01-06T02:34:57;1.00;99.90
52965;DHT22;42923;53.220;6.528;2024-01-06T02:37:23;1.10;99.90
52965;DHT22;42923;53.220;6.528;2024-01-06T02:39:48;1.00;99.90
52965;DHT22;42923;53.220;6.528;2024-01-06T02:42:14;1.00;99.90
52965;DHT22;42923;53.220;6.528;2024-01-06T02:44:40;1.00;99.90
52965;DHT22;42923;53.220;6.528;2024-01-06T02:47:06;1.00;99.90
52965;DHT22;42923;53.220;6.528;2024-01-06T02:49:31;1.10;99.90
52965;DHT22;42923;53.220;6.528;2024-01-06T02:51:57;1.10;99.90
52965;DHT22;42923;53.220;6.528;2024-01-06T02:54:23;1.10;99.90
52965;DHT22;42923;53.220;6.528;2024-01-06T02:56:48;1.10;99.90
52965;DHT22;42923;53.220;6.528;2024-01-06T02:59:14;1.00;99.90
52965;DHT22;42923;53.220;6.528;2024-01-06T03:01:40;1.00;99.90
52965;DHT22;42923;53.220;6.528;2024-01-06T03:04:05;1.00;99.90
52965;DHT22;42923;53.220;6.528;2024-01-06T03:06:31;1.00;99.90
52965;DHT22;42923;53.220;6.528;2024-01-06T03:08:56;1.10;99.90
52965;DHT22;42923;53.220;6.528;2024-01-06T03:11:22;1.10;99.90
52965;DHT22;42923;53.220;6.528;2024-01-06T03:13:49;2.60;99.90
52965;DHT22;42923;53.220;6.528;2024-01-06T03:16:15;1.10;99.90
52965;DHT22;42923;53.220;6.528;2024-01-06T03:18:40;1.00;99.90
52965;DHT22;42923;53.220;6.528;2024-01-06T03:21:17;1.00;99.90
52965;DHT22;42923;53.220;6.528;2024-01-06T03:23:43;1.00;99.90
52965;DHT22;42923;53.220;6.528;2024-01-06T03:26:09;1.00;99.90
52965;DHT22;42923;53.220;6.528;2024-01-06T03:28:37;1.00;99.90
52965;DHT22;42923;53.220;6.528;2024-01-06T03:31:02;1.00;99.90
52965;DHT22;42923;53.220;6.528;2024-01-06T03:33:28;1.00;99.90
52965;DHT22;42923;53.220;6.528;2024-01-06T03:35:56;1.00;99.90
52965;DHT22;42923;53.220;6.528;2024-01-06T03:38:22;1.00;99.90
52965;DHT22;42923;53.220;6.528;2024-01-06T03:40:48;1.00;99.90
52965;DHT22;42923;53.220;6.528;2024-01-06T03:43:13;1.00;99.90
52965;DHT22;42923;53.220;6.528;2024-01-06T03:45:39;1.00;99.90
52965;DHT22;42923;53.220;6.528;2024-01-06T03:48:05;1.00;99.90
52965;DHT22;42923;53.220;6.528;2024-01-06T03:50:31;1.00;99.90
52965;DHT22;42923;53.220;6.528;2024-01-06T03:52:57;1.00;99.90
52965;DHT22;42923;53.220;6.528;2024-01-06T03:55:22;0.90;99.90
52965;DHT22;42923;53.220;6.528;2024-01-06T03:57:48;1.00;99.90
52965;DHT22;42923;53.220;6.528;2024-01-06T04:00:14;1.00;99.90
52965;DHT22;42923;53.220;6.528;2024-01-06T04:02:40;1.00;99.90
52965;DHT22;42923;53.220;6.528;2024-01-06T04:05:06;1.00;99.90
52965;DHT22;42923;53.220;6.528;2024-01-06T04:07:32;1.00;99.90
52965;DHT22;42923;53.220;6.528;2024-01-06T04:09:57;1.00;99.90
52965;DHT22;42923;53.220;6.528;2024-01-06T04:12:23;1.60;99.90
52965;DHT22;42923;53.220;6.528;2024-01-06T04:14:49;1.00;99.90
52965;DHT22;42923;53.220;6.528;2024-01-06T04:17:14;1.00;99.90
52965;DHT22;42923;53.220;6.528;2024-01-06T04:19:42;1.00;99.90
52965;DHT22;42923;53.220;6.528;2024-01-06T04:22:08;1.00;99.90
52965;DHT22;42923;53.220;6.528;2024-01-06T04:24:34;1.00;99.90
52965;DHT22;42923;53.220;6.528;2024-01-06T04:27:04;1.00;99.90
52965;DHT22;42923;53.220;6.528;2024-01-06T04:29:30;1.00;99.90
52965;DHT22;42923;53.220;6.528;2024-01-06T04:31:55;1.00;99.90
52965;DHT22;42923;53.220;6.528;2024-01-06T04:34:21;1.00;99.90
52965;DHT22;42923;53.220;6.528;2024-01-06T04:36:47;1.00;99.90
52965;DHT22;42923;53.220;6.528;2024-01-06T04:39:14;1.00;99.90
52965;DHT22;42923;53.220;6.528;2024-01-06T04:41:40;1.00;99.90
52965;DHT22;42923;53.220;6.528;2024-01-06T04:44:06;1.60;99.90
52965;DHT22;42923;53.220;6.528;2024-01-06T04:46:32;1.00;99.90
52965;DHT22;42923;53.220;6.528;2024-01-06T04:48:57;1.10;99.90
52965;DHT22;42923;53.220;6.528;2024-01-06T04:51:23;1.10;99.90
52965;DHT22;42923;53.220;6.528;2024-01-06T04:53:49;1.00;99.90
52965;DHT22;42923;53.220;6.528;2024-01-06T04:56:15;1.00;99.90
52965;DHT22;42923;53.220;6.528;2024-01-06T04:58:40;1.00;99.90
52965;DHT22;42923;53.220;6.528;2024-01-06T05:01:06;1.10;99.90
52965;DHT22;42923;53.220;6.528;2024-01-06T05:03:32;1.00;99.90
52965;DHT22;42923;53.220;6.528;2024-01-06T05:05:57;1.00;99.90
52965;DHT22;42923;53.220;6.528;2024-01-06T05:08:23;1.10;99.90
52965;DHT22;42923;53.220;6.528;2024-01-06T05:10:52;1.10;99.90
52965;DHT22;42923;53.220;6.528;2024-01-06T05:13:18;1.00;99.90
52965;DHT22;42923;53.220;6.528;2024-01-06T05:15:44;1.00;99.90
52965;DHT22;42923;53.220;6.528;2024-01-06T05:18:10;1.00;99.90
52965;DHT22;42923;53.220;6.528;2024-01-06T05:20:35;1.00;99.90
52965;DHT22;42923;53.220;6.528;2024-01-06T05:23:02;1.00;99.90
52965;DHT22;42923;53.220;6.528;2024-01-06T05:25:28;1.00;99.90
52965;DHT22;42923;53.220;6.528;2024-01-06T05:27:54;1.00;99.90
52965;DHT22;42923;53.220;6.528;2024-01-06T05:30:19;1.00;99.90
52965;DHT22;42923;53.220;6.528;2024-01-06T05:32:45;1.10;99.90
52965;DHT22;42923;53.220;6.528;2024-01-06T05:35:11;1.50;99.90
52965;DHT22;42923;53.220;6.528;2024-01-06T05:37:36;1.10;99.90
52965;DHT22;42923;53.220;6.528;2024-01-06T05:40:02;1.10;99.90
52965;DHT22;42923;53.220;6.528;2024-01-06T05:42:30;1.10;99.90
52965;DHT22;42923;53.220;6.528;2024-01-06T05:44:55;1.10;99.90
52965;DHT22;42923;53.220;6.528;2024-01-06T05:47:21;1.10;99.90
52965;DHT22;42923;53.220;6.528;2024-01-06T05:49:47;1.10;99.90
52965;DHT22;42923;53.220;6.528;2024-01-06T05:52:12;1.10;99.90
52965;DHT22;42923;53.220;6.528;2024-01-06T05:54:42;1.10;99.90
52965;DHT22;42923;53.220;6.528;2024-01-06T05:57:08;1.10;99.90
52965;DHT22;42923;53.220;6.528;2024-01-06T05:59:34;1.10;99.90
52965;DHT22;42923;53.220;6.528;2024-01-06T06:02:00;1.10;99.90
52965;DHT22;42923;53.220;6.528;2024-01-06T06:04:25;1.20;99.90
52965;DHT22;42923;53.220;6.528;2024-01-06T06:06:51;1.20;99.90
52965;DHT22;42923;53.220;6.528;2024-01-06T06:09:17;1.20;99.90
52965;DHT22;42923;53.220;6.528;2024-01-06T06:11:43;1.20;99.90
52965;DHT22;42923;53.220;6.528;2024-01-06T06:14:09;1.20;99.90
52965;DHT22;42923;53.220;6.528;2024-01-06T06:16:35;1.20;99.90
52965;DHT22;42923;53.220;6.528;2024-01-06T06:19:01;1.20;99.90
52965;DHT22;42923;53.220;6.528;2024-01-06T06:21:29;1.50;99.90
52965;DHT22;42923;53.220;6.528;2024-01-06T06:23:54;1.40;99.90
52965;DHT22;42923;53.220;6.528;2024-01-06T06:26:20;1.20;99.90
52965;DHT22;42923;53.220;6.528;2024-01-06T06:28:46;1.30;99.90
52965;DHT22;42923;53.220;6.528;2024-01-06T06:31:11;1.30;99.90
52965;DHT22;42923;53.220;6.528;2024-01-06T06:33:37;1.20;99.90
52965;DHT22;42923;53.220;6.528;2024-01-06T06:36:03;1.20;99.90
52965;DHT22;42923;53.220;6.528;2024-01-06T06:38:29;1.30;99.90
52965;DHT22;42923;53.220;6.528;2024-01-06T06:40:55;1.30;99.90
52965;DHT22;42923;53.220;6.528;2024-01-06T06:43:21;1.20;99.90
52965;DHT22;42923;53.220;6.528;2024-01-06T06:45:47;1.30;99.90
52965;DHT22;42923;53.220;6.528;2024-01-06T06:48:13;1.30;99.90
52965;DHT22;42923;53.220;6.528;2024-01-06T06:50:38;1.30;99.90
52965;DHT22;42923;53.220;6.528;2024-01-06T06:53:06;1.30;99.90
52965;DHT22;42923;53.220;6.528;2024-01-06T06:55:32;1.20;99.90
52965;DHT22;42923;53.220;6.528;2024-01-06T06:57:57;1.20;99.90
52965;DHT22;42923;53.220;6.528;2024-01-06T07:00:23;1.30;99.90
52965;DHT22;42923;53.220;6.528;2024-01-06T07:02:49;1.20;99.90
52965;DHT22;42923;53.220;6.528;2024-01-06T07:05:15;1.20;99.90
52965;DHT22;42923;53.220;6.528;2024-01-06T07:07:41;1.20;99.90
52965;DHT22;42923;53.220;6.528;2024-01-06T07:10:10;1.20;99.90
52965;DHT22;42923;53.220;6.528;2024-01-06T07:12:35;1.20;99.90
52965;DHT22;42923;53.220;6.528;2024-01-06T07:15:02;1.20;99.90
52965;DHT22;42923;53.220;6.528;2024-01-06T07:17:27;1.20;99.90
52965;DHT22;42923;53.220;6.528;2024-01-06T07:19:53;1.20;99.90
52965;DHT22;42923;53.220;6.528;2024-01-06T07:22:19;1.20;99.90
52965;DHT22;42923;53.220;6.528;2024-01-06T07:24:45;1.20;99.90
52965;DHT22;42923;53.220;6.528;2024-01-06T07:27:11;1.20;99.90
52965;DHT22;42923;53.220;6.528;2024-01-06T07:29:37;1.90;99.90
52965;DHT22;42923;53.220;6.528;2024-01-06T07:32:04;1.20;99.90
52965;DHT22;42923;53.220;6.528;2024-01-06T07:34:31;2.10;99.90
52965;DHT22;42923;53.220;6.528;2024-01-06T07:36:57;1.20;99.90
52965;DHT22;42923;53.220;6.528;2024-01-06T07:39:23;1.20;99.90
52965;DHT22;42923;53.220;6.528;2024-01-06T07:41:50;1.20;99.90
52965;DHT22;42923;53.220;6.528;2024-01-06T07:44:16;1.20;99.90
52965;DHT22;42923;53.220;6.528;2024-01-06T07:46:48;1.20;99.90
52965;DHT22;42923;53.220;6.528;2024-01-06T07:49:13;1.30;99.90
52965;DHT22;42923;53.220;6.528;2024-01-06T07:51:39;1.20;99.90
52965;DHT22;42923;53.220;6.528;2024-01-06T07:54:05;1.30;99.90
52965;DHT22;42923;53.220;6.528;2024-01-06T07:56:32;2.50;99.90
52965;DHT22;42923;53.220;6.528;2024-01-06T07:58:58;1.20;99.90
52965;DHT22;42923;53.220;6.528;2024-01-06T08:01:23;1.20;99.90
52965;DHT22;42923;53.220;6.528;2024-01-06T08:03:49;1.20;99.90
52965;DHT22;42923;53.220;6.528;2024-01-06T08:06:15;1.20;99.90
52965;DHT22;42923;53.220;6.528;2024-01-06T08:08:41;1.30;99.90
52965;DHT22;42923;53.220;6.528;2024-01-06T08:11:07;1.30;99.90
52965;DHT22;42923;53.220;6.528;2024-01-06T08:13:32;1.30;99.90
52965;DHT22;42923;53.220;6.528;2024-01-06T08:15:58;1.30;99.90
52965;DHT22;42923;53.220;6.528;2024-01-06T08:18:24;1.30;99.90
52965;DHT22;42923;53.220;6.528;2024-01-06T08:20:50;1.30;99.90
52965;DHT22;42923;53.220;6.528;2024-01-06T08:23:16;1.30;99.90
52965;DHT22;42923;53.220;6.528;2024-01-06T08:25:46;1.30;99.90
52965;DHT22;42923;53.220;6.528;2024-01-06T08:28:12;1.50;99.90
52965;DHT22;42923;53.220;6.528;2024-01-06T08:30:40;1.40;99.90
52965;DHT22;42923;53.220;6.528;2024-01-06T08:33:06;1.40;99.90
52965;DHT22;42923;53.220;6.528;2024-01-06T08:35:31;1.40;99.90
52965;DHT22;42923;53.220;6.528;2024-01-06T08:37:57;1.40;99.90
52965;DHT22;42923;53.220;6.528;2024-01-06T08:40:23;1.50;99.90
52965;DHT22;42923;53.220;6.528;2024-01-06T08:42:49;2.80;99.90
52965;DHT22;42923;53.220;6.528;2024-01-06T08:45:15;1.50;99.90
52965;DHT22;42923;53.220;6.528;2024-01-06T08:47:40;1.50;99.90
52965;DHT22;42923;53.220;6.528;2024-01-06T08:50:07;1.50;99.90
52965;DHT22;42923;53.220;6.528;2024-01-06T08:52:33;1.50;99.90
52965;DHT22;42923;53.220;6.528;2024-01-06T08:54:58;1.50;99.90
52965;DHT22;42923;53.220;6.528;2024-01-06T08:57:24;1.60;99.90
52965;DHT22;42923;53.220;6.528;2024-01-06T08:59:50;1.60;99.90
52965;DHT22;42923;53.220;6.528;2024-01-06T09:02:15;1.60;99.90
52965;DHT22;42923;53.220;6.528;2024-01-06T09:04:41;1.60;99.90
52965;DHT22;42923;53.220;6.528;2024-01-06T09:07:07;1.60;99.90
52965;DHT22;42923;53.220;6.528;2024-01-06T09:09:33;1.60;99.90
52965;DHT22;42923;53.220;6.528;2024-01-06T09:11:58;2.50;99.90
52965;DHT22;42923;53.220;6.528;2024-01-06T09:14:25;1.70;99.90
52965;DHT22;42923;53.220;6.528;2024-01-06T09:16:50;1.70;99.90
52965;DHT22;42923;53.220;6.528;2024-01-06T09:19:16;1.70;99.90
52965;DHT22;42923;53.220;6.528;2024-01-06T09:21:42;1.70;99.90
52965;DHT22;42923;53.220;6.528;2024-01-06T09:24:07;1.80;99.90
52965;DHT22;42923;53.220;6.528;2024-01-06T09:26:33;0.80;99.90
52965;DHT22;42923;53.220;6.528;2024-01-06T09:29:02;1.80;99.90
52965;DHT22;42923;53.220;6.528;2024-01-06T09:31:29;1.70;99.90
52965;DHT22;42923;53.220;6.528;2024-01-06T09:33:55;1.80;99.90
52965;DHT22;42923;53.220;6.528;2024-01-06T09:36:21;1.80;99.90
52965;DHT22;42923;53.220;6.528;2024-01-06T09:38:46;1.80;99.90
52965;DHT22;42923;53.220;6.528;2024-01-06T09:41:13;1.80;99.90
52965;DHT22;42923;53.220;6.528;2024-01-06T09:43:39;3.40;99.90
52965;DHT22;42923;53.220;6.528;2024-01-06T09:46:15;1.80;99.90
52965;DHT22;42923;53.220;6.528;2024-01-06T09:48:45;1.80;99.90
52965;DHT22;42923;53.220;6.528;2024-01-06T09:51:13;1.90;99.90
52965;DHT22;42923;53.220;6.528;2024-01-06T09:54:00;1.90;99.90
52965;DHT22;42923;53.220;6.528;2024-01-06T09:56:27;1.90;99.90
52965;DHT22;42923;53.220;6.528;2024-01-06T09:58:54;2.00;99.90
52965;DHT22;42923;53.220;6.528;2024-01-06T10:01:20;1.90;99.90
52965;DHT22;42923;53.220;6.528;2024-01-06T10:03:47;1.90;99.90
52965;DHT22;42923;53.220;6.528;2024-01-06T10:06:14;1.60;99.90
52965;DHT22;42923;53.220;6.528;2024-01-06T10:08:48;2.00;99.90
52965;DHT22;42923;53.220;6.528;2024-01-06T10:11:14;2.00;99.90
52965;DHT22;42923;53.220;6.528;2024-01-06T10:13:40;2.00;99.90
52965;DHT22;42923;53.220;6.528;2024-01-06T10:16:06;2.00;99.90
52965;DHT22;42923;53.220;6.528;2024-01-06T10:18:32;2.10;99.90
52965;DHT22;42923;53.220;6.528;2024-01-06T10:20:58;2.10;99.90
52965;DHT22;42923;53.220;6.528;2024-01-06T10:23:25;2.10;99.90
52965;DHT22;42923;53.220;6.528;2024-01-06T10:25:55;2.20;99.90
52965;DHT22;42923;53.220;6.528;2024-01-06T10:28:23;2.20;99.90
52965;DHT22;42923;53.220;6.528;2024-01-06T10:30:53;2.20;99.90
52965;DHT22;42923;53.220;6.528;2024-01-06T10:33:23;2.20;99.90
52965;DHT22;42923;53.220;6.528;2024-01-06T10:35:49;2.20;99.90
52965;DHT22;42923;53.220;6.528;2024-01-06T10:38:16;2.20;99.90
52965;DHT22;42923;53.220;6.528;2024-01-06T10:41:03;2.20;99.90
52965;DHT22;42923;53.220;6.528;2024-01-06T10:43:34;2.30;99.90
52965;DHT22;42923;53.220;6.528;2024-01-06T10:46:07;3.20;99.90
52965;DHT22;42923;53.220;6.528;2024-01-06T10:48:37;2.30;99.90
52965;DHT22;42923;53.220;6.528;2024-01-06T10:51:04;2.20;99.90
52965;DHT22;42923;53.220;6.528;2024-01-06T10:53:33;2.20;99.90
52965;DHT22;42923;53.220;6.528;2024-01-06T10:56:03;2.20;99.90
52965;DHT22;42923;53.220;6.528;2024-01-06T10:58:30;2.30;99.90
52965;DHT22;42923;53.220;6.528;2024-01-06T11:00:57;2.30;99.90
52965;DHT22;42923;53.220;6.528;2024-01-06T11:03:24;2.30;99.90
52965;DHT22;42923;53.220;6.528;2024-01-06T11:05:50;2.60;99.90
52965;DHT22;42923;53.220;6.528;2024-01-06T11:08:21;2.50;99.90
52965;DHT22;42923;53.220;6.528;2024-01-06T11:10:47;2.50;99.90
52965;DHT22;42923;53.220;6.528;2024-01-06T11:13:20;2.50;99.90
52965;DHT22;42923;53.220;6.528;2024-01-06T11:15:48;2.50;99.90
52965;DHT22;42923;53.220;6.528;2024-01-06T11:18:38;2.50;99.90
52965;DHT22;42923;53.220;6.528;2024-01-06T11:21:22;2.60;99.90
52965;DHT22;42923;53.220;6.528;2024-01-06T11:26:42;2.60;99.90
52965;DHT22;42923;53.220;6.528;2024-01-06T11:29:08;2.50;99.90
52965;DHT22;42923;53.220;6.528;2024-01-06T11:31:34;2.50;99.90
52965;DHT22;42923;53.220;6.528;2024-01-06T11:34:17;2.50;99.90
52965;DHT22;42923;53.220;6.528;2024-01-06T11:36:45;2.60;99.90
52965;DHT22;42923;53.220;6.528;2024-01-06T11:39:37;2.60;99.90
52965;DHT22;42923;53.220;6.528;2024-01-06T11:42:04;2.60;99.90
52965;DHT22;42923;53.220;6.528;2024-01-06T11:44:33;2.60;99.90
52965;DHT22;42923;53.220;6.528;2024-01-06T11:46:59;2.60;99.90
52965;DHT22;42923;53.220;6.528;2024-01-06T11:49:29;2.60;99.90
52965;DHT22;42923;53.220;6.528;2024-01-06T11:51:56;2.60;99.90
52965;DHT22;42923;53.220;6.528;2024-01-06T11:54:22;2.50;99.90
52965;DHT22;42923;53.220;6.528;2024-01-06T11:56:48;2.50;99.90
52965;DHT22;42923;53.220;6.528;2024-01-06T11:59:14;2.40;99.90
52965;DHT22;42923;53.220;6.528;2024-01-06T12:01:40;2.40;99.90
52965;DHT22;42923;53.220;6.528;2024-01-06T12:04:07;2.30;99.90
52965;DHT22;42923;53.220;6.528;2024-01-06T12:06:33;2.20;99.90
52965;DHT22;42923;53.220;6.528;2024-01-06T12:09:11;2.20;99.90
52965;DHT22;42923;53.220;6.528;2024-01-06T12:11:40;2.20;99.90
52965;DHT22;42923;53.220;6.528;2024-01-06T12:14:06;2.20;99.90
52965;DHT22;42923;53.220;6.528;2024-01-06T12:16:32;2.30;99.90
52965;DHT22;42923;53.220;6.528;2024-01-06T12:18:59;2.20;99.90
52965;DHT22;42923;53.220;6.528;2024-01-06T12:21:29;2.00;99.90
52965;DHT22;42923;53.220;6.528;2024-01-06T12:24:15;2.10;99.90
52965;DHT22;42923;53.220;6.528;2024-01-06T12:26:42;2.10;99.90
52965;DHT22;42923;53.220;6.528;2024-01-06T12:29:09;1.90;99.90
52965;DHT22;42923;53.220;6.528;2024-01-06T12:31:34;1.90;99.90
52965;DHT22;42923;53.220;6.528;2024-01-06T12:34:00;1.80;99.90
52965;DHT22;42923;53.220;6.528;2024-01-06T12:36:26;1.80;99.90
52965;DHT22;42923;53.220;6.528;2024-01-06T12:38:51;1.80;99.90
52965;DHT22;42923;53.220;6.528;2024-01-06T12:41:17;1.80;99.90
52965;DHT22;42923;53.220;6.528;2024-01-06T12:43:43;1.70;99.90
52965;DHT22;42923;53.220;6.528;2024-01-06T12:46:08;1.70;99.90
52965;DHT22;42923;53.220;6.528;2024-01-06T12:48:34;1.70;99.90
52965;DHT22;42923;53.220;6.528;2024-01-06T12:51:00;1.60;99.90
52965;DHT22;42923;53.220;6.528;2024-01-06T12:53:25;1.70;99.90
52965;DHT22;42923;53.220;6.528;2024-01-06T12:55:51;2.30;99.90
52965;DHT22;42923;53.220;6.528;2024-01-06T12:58:17;1.60;99.90
52965;DHT22;42923;53.220;6.528;2024-01-06T13:00:42;1.60;99.90
52965;DHT22;42923;53.220;6.528;2024-01-06T13:03:08;1.60;99.90
52965;DHT22;42923;53.220;6.528;2024-01-06T13:05:34;1.60;99.90
52965;DHT22;42923;53.220;6.528;2024-01-06T13:08:00;1.60;99.90
52965;DHT22;42923;53.220;6.528;2024-01-06T13:10:27;1.60;99.90
52965;DHT22;42923;53.220;6.528;2024-01-06T13:12:52;1.60;99.90
52965;DHT22;42923;53.220;6.528;2024-01-06T13:15:18;1.80;99.90
52965;DHT22;42923;53.220;6.528;2024-01-06T13:17:44;1.70;99.90
52965;DHT22;42923;53.220;6.528;2024-01-06T13:20:10;1.70;99.90
52965;DHT22;42923;53.220;6.528;2024-01-06T13:22:35;1.70;99.90
52965;DHT22;42923;53.220;6.528;2024-01-06T13:25:01;1.70;99.90
52965;DHT22;42923;53.220;6.528;2024-01-06T13:27:27;1.70;99.90
52965;DHT22;42923;53.220;6.528;2024-01-06T13:29:53;1.70;99.90
52965;DHT22;42923;53.220;6.528;2024-01-06T13:32:19;1.70;99.90
52965;DHT22;42923;53.220;6.528;2024-01-06T13:34:45;1.60;99.90
52965;DHT22;42923;53.220;6.528;2024-01-06T13:37:11;1.60;99.90
52965;DHT22;42923;53.220;6.528;2024-01-06T13:39:37;1.60;99.90
52965;DHT22;42923;53.220;6.528;2024-01-06T13:42:03;1.60;99.90
52965;DHT22;42923;53.220;6.528;2024-01-06T13:44:29;1.60;99.90
52965;DHT22;42923;53.220;6.528;2024-01-06T13:46:54;1.80;99.90
52965;DHT22;42923;53.220;6.528;2024-01-06T13:49:21;1.50;99.90
52965;DHT22;42923;53.220;6.528;2024-01-06T13:51:49;1.50;99.90
52965;DHT22;42923;53.220;6.528;2024-01-06T13:54:14;1.50;99.90
52965;DHT22;42923;53.220;6.528;2024-01-06T13:56:40;2.40;99.90
52965;DHT22;42923;53.220;6.528;2024-01-06T13:59:06;1.50;99.90
52965;DHT22;42923;53.220;6.528;2024-01-06T14:01:32;1.50;99.90
52965;DHT22;42923;53.220;6.528;2024-01-06T14:03:58;1.50;99.90
52965;DHT22;42923;53.220;6.528;2024-01-06T14:06:25;1.50;99.90
52965;DHT22;42923;53.220;6.528;2024-01-06T14:08:51;1.80;99.90
52965;DHT22;42923;53.220;6.528;2024-01-06T14:11:18;1.40;99.90
52965;DHT22;42923;53.220;6.528;2024-01-06T14:13:44;1.40;99.90
52965;DHT22;42923;53.220;6.528;2024-01-06T14:16:14;1.40;99.90
52965;DHT22;42923;53.220;6.528;2024-01-06T14:18:40;1.40;99.90
52965;DHT22;42923;53.220;6.528;2024-01-06T14:21:09;1.30;99.90
52965;DHT22;42923;53.220;6.528;2024-01-06T14:23:34;1.30;99.90
52965;DHT22;42923;53.220;6.528;2024-01-06T14:26:00;1.30;99.90
52965;DHT22;42923;53.220;6.528;2024-01-06T14:28:26;1.30;99.90
52965;DHT22;42923;53.220;6.528;2024-01-06T14:30:51;1.30;99.90
52965;DHT22;42923;53.220;6.528;2024-01-06T14:33:17;1.30;99.90
52965;DHT22;42923;53.220;6.528;2024-01-06T14:35:45;1.30;99.90
52965;DHT22;42923;53.220;6.528;2024-01-06T14:38:12;1.30;99.90
52965;DHT22;42923;53.220;6.528;2024-01-06T14:40:37;1.40;99.90
52965;DHT22;42923;53.220;6.528;2024-01-06T14:43:03;1.30;99.90
52965;DHT22;42923;53.220;6.528;2024-01-06T14:45:33;1.30;99.90
52965;DHT22;42923;53.220;6.528;2024-01-06T14:47:58;1.30;99.90
52965;DHT22;42923;53.220;6.528;2024-01-06T14:50:25;1.30;99.90
52965;DHT22;42923;53.220;6.528;2024-01-06T14:52:51;1.30;99.90
52965;DHT22;42923;53.220;6.528;2024-01-06T14:55:17;1.30;99.90
52965;DHT22;42923;53.220;6.528;2024-01-06T14:57:43;1.30;99.90
52965;DHT22;42923;53.220;6.528;2024-01-06T15:00:09;1.30;99.90
52965;DHT22;42923;53.220;6.528;2024-01-06T15:02:39;1.30;99.90
52965;DHT22;42923;53.220;6.528;2024-01-06T15:05:11;1.30;99.90
52965;DHT22;42923;53.220;6.528;2024-01-06T15:07:37;1.30;99.90
52965;DHT22;42923;53.220;6.528;2024-01-06T15:10:03;1.30;99.90
52965;DHT22;42923;53.220;6.528;2024-01-06T15:12:30;1.30;99.90
52965;DHT22;42923;53.220;6.528;2024-01-06T15:14:56;1.30;99.90
52965;DHT22;42923;53.220;6.528;2024-01-06T15:17:24;1.30;99.90
52965;DHT22;42923;53.220;6.528;2024-01-06T15:19:49;1.20;99.90
52965;DHT22;42923;53.220;6.528;2024-01-06T15:22:16;1.20;99.90
52965;DHT22;42923;53.220;6.528;2024-01-06T15:24:42;1.20;99.90
52965;DHT22;42923;53.220;6.528;2024-01-06T15:27:16;1.10;99.90
52965;DHT22;42923;53.220;6.528;2024-01-06T15:29:42;1.00;99.90
52965;DHT22;42923;53.220;6.528;2024-01-06T15:32:08;1.00;99.90
52965;DHT22;42923;53.220;6.528;2024-01-06T15:34:34;1.00;99.90
52965;DHT22;42923;53.220;6.528;2024-01-06T15:37:00;0.90;99.90
52965;DHT22;42923;53.220;6.528;2024-01-06T15:39:25;0.90;99.90
52965;DHT22;42923;53.220;6.528;2024-01-06T15:41:51;0.80;99.90
52965;DHT22;42923;53.220;6.528;2024-01-06T15:44:17;0.80;99.90